Time;durP1;ratioP1;P1;durP2;ratioP2;P2;SDS_P1;SDS_P2;PMS_P1;PMS_P2;Temp;Humidity;BMP_temperature;BMP_pressure;BME280_temperature;BME280_humidity;BME280_pressure;Samples;Min_cycle;Max_cycle;Signal;HPM_P1;HPM_P2
2023/02/09 00:02:41;;;;;;;11.52;10.32;;;;;;;-3.06;68.65;101867.31;10552612;28;20048;-79
2023/02/09 00:07:43;;;;;;;16.30;10.50;;;;;;;-3.09;67.06;101871.44;10534853;28;20109;-81
2023/02/09 00:18:05;;;;;;;11.98;10.35;;;;;;;-3.87;70.63;101862.94;10552704;28;20037;-81
2023/02/09 00:23:07;;;;;;;15.20;11.57;;;;;;;-4.02;72.01;101859.50;10534116;28;20135;-81
2023/02/09 00:28:09;;;;;;;15.13;11.88;;;;;;;-4.23;72.42;101856.59;10550826;28;20041;-82
2023/02/09 00:33:10;;;;;;;27.70;14.90;;;;;;;-4.07;71.18;101855.81;10533890;28;20040;-80
2023/02/09 00:38:13;;;;;;;12.57;11.10;;;;;;;-4.28;72.10;101855.47;10531927;28;20024;-78
2023/02/09 00:43:14;;;;;;;19.63;11.15;;;;;;;-4.18;72.11;101855.19;10510706;28;20467;-78
2023/02/09 00:48:16;;;;;;;12.80;11.13;;;;;;;-4.36;72.82;101849.88;10522309;22;20040;-74
2023/02/09 00:53:20;;;;;;;12.23;10.52;;;;;;;-4.41;72.79;101848.75;10539277;28;20044;-75
2023/02/09 00:58:22;;;;;;;18.80;13.30;;;;;;;-4.68;74.16;101842.91;10544418;28;20083;-76
2023/02/09 01:03:24;;;;;;;17.08;12.55;;;;;;;-4.58;72.83;101839.19;10541345;28;20210;-74
2023/02/09 01:08:27;;;;;;;13.65;11.93;;;;;;;-5.11;74.87;101839.47;10525010;28;20106;-75
2023/02/09 01:13:29;;;;;;;17.05;11.85;;;;;;;-4.92;74.55;101832.06;10542069;28;20044;-76
2023/02/09 01:18:31;;;;;;;17.15;11.93;;;;;;;-4.83;75.25;101830.03;10546942;28;20040;-74
2023/02/09 01:23:35;;;;;;;17.58;13.50;;;;;;;-5.20;75.54;101826.97;10544289;28;20051;-75
2023/02/09 01:28:38;;;;;;;16.73;11.95;;;;;;;-5.44;76.83;101831.50;10544238;28;20040;-76
2023/02/09 01:33:39;;;;;;;15.85;10.77;;;;;;;-5.42;77.36;101822.22;10544388;28;20044;-75
2023/02/09 01:38:42;;;;;;;17.00;11.57;;;;;;;-5.49;77.06;101817.53;10547019;28;20416;-75
2023/02/09 01:43:53;;;;;;;16.27;12.85;;;;;;;-5.21;77.48;101817.50;10528229;28;20040;-76
2023/02/09 01:49:14;;;;;;;13.60;10.90;;;;;;;-5.81;78.34;101802.72;10542120;28;20048;-76
2023/02/09 01:54:22;;;;;;;19.20;10.20;;;;;;;-5.78;78.11;101818.28;10542523;28;20039;-76
2023/02/09 01:59:24;;;;;;;13.02;11.40;;;;;;;-5.80;79.98;101812.16;10541933;28;20050;-76
2023/02/09 02:04:26;;;;;;;13.52;11.10;;;;;;;-5.98;79.94;101803.34;10544334;28;20062;-76
2023/02/09 02:09:29;;;;;;;14.68;11.95;;;;;;;-5.76;79.66;101796.19;10541464;28;20040;-76
2023/02/09 02:14:35;;;;;;;17.02;12.57;;;;;;;-5.92;79.37;101799.53;10551610;28;20046;-76
2023/02/09 02:19:55;;;;;;;16.42;12.25;;;;;;;-6.02;79.75;101797.19;10549492;28;20387;-76
2023/02/09 02:25:36;;;;;;;13.93;12.13;;;;;;;-5.89;80.39;101801.34;10552797;28;20379;-76
2023/02/09 02:30:58;;;;;;;13.75;11.85;;;;;;;-5.88;81.01;101803.13;10548944;28;20058;-76
2023/02/09 02:36:11;;;;;;;13.05;10.82;;;;;;;-6.01;81.22;101798.06;10550430;28;20047;-75
2023/02/09 02:41:25;;;;;;;13.15;11.75;;;;;;;-6.03;79.83;101794.50;10550297;28;20059;-76
2023/02/09 02:46:42;;;;;;;14.07;10.80;;;;;;;-6.42;82.19;101796.28;10552051;28;20036;-75
2023/02/09 02:51:48;;;;;;;20.48;12.85;;;;;;;-6.45;82.62;101791.88;10550356;28;20459;-75
2023/02/09 02:56:59;;;;;;;15.52;12.20;;;;;;;-6.25;83.53;101782.91;10549252;28;20060;-75
2023/02/09 03:02:12;;;;;;;15.15;12.10;;;;;;;-6.45;83.93;101778.19;10551022;28;20390;-74
2023/02/09 03:07:16;;;;;;;15.25;11.65;;;;;;;-6.40;82.40;101779.38;10551586;28;20036;-74
2023/02/09 03:12:39;;;;;;;17.92;12.52;;;;;;;-6.49;83.05;101782.22;10550106;28;20537;-76
2023/02/09 03:18:07;;;;;;;18.35;13.55;;;;;;;-6.60;84.36;101783.19;10549018;28;20082;-76
2023/02/09 03:23:30;;;;;;;17.48;12.35;;;;;;;-6.74;83.94;101781.41;10546098;28;20456;-76
2023/02/09 03:28:36;;;;;;;14.82;12.23;;;;;;;-6.73;84.72;101773.88;10550133;28;20189;-76
2023/02/09 03:33:38;;;;;;;18.20;13.53;;;;;;;-6.72;84.21;101778.19;10546298;28;20032;-76
2023/02/09 03:38:40;;;;;;;17.17;12.38;;;;;;;-6.70;84.25;101774.03;10528535;28;20055;-76
2023/02/09 03:49:02;;;;;;;15.82;12.07;;;;;;;-6.71;84.72;101766.28;10547851;28;20535;-76
2023/02/09 03:54:04;;;;;;;17.05;12.43;;;;;;;-6.92;84.88;101770.84;10544497;28;20127;-77
2023/02/09 03:59:06;;;;;;;13.65;12.07;;;;;;;-6.85;84.73;101765.38;10545252;28;20386;-76
2023/02/09 04:04:08;;;;;;;14.85;12.10;;;;;;;-7.00;85.20;101765.22;10545128;28;20063;-75
2023/02/09 04:09:10;;;;;;;16.05;12.00;;;;;;;-6.70;84.13;101757.81;10545951;28;20486;-75
2023/02/09 04:14:12;;;;;;;17.38;13.57;;;;;;;-6.90;84.25;101754.84;10543712;28;20460;-76
2023/02/09 04:19:16;;;;;;;14.02;12.23;;;;;;;-6.84;84.96;101756.03;10544505;28;20409;-78
2023/02/09 04:24:20;;;;;;;17.00;11.73;;;;;;;-7.13;85.95;101758.44;10546155;28;20393;-77
2023/02/09 04:29:21;;;;;;;15.35;12.43;;;;;;;-7.20;85.27;101753.69;10544412;28;20048;-76
2023/02/09 04:34:23;;;;;;;16.70;12.57;;;;;;;-7.23;86.37;101753.47;10546054;28;20050;-76
2023/02/09 04:39:25;;;;;;;18.48;13.68;;;;;;;-7.04;86.32;101739.38;10542645;28;20050;-76
2023/02/09 04:44:27;;;;;;;17.52;12.93;;;;;;;-7.12;86.45;101741.44;10543349;28;20068;-76
2023/02/09 04:49:28;;;;;;;18.45;13.50;;;;;;;-7.17;86.65;101742.78;10542425;28;20047;-76
2023/02/09 04:54:30;;;;;;;20.00;13.80;;;;;;;-7.23;87.08;101738.16;10546099;28;20048;-76
2023/02/09 04:59:37;;;;;;;16.70;14.02;;;;;;;-7.36;87.49;101740.66;10543317;28;20497;-76
2023/02/09 05:04:39;;;;;;;;;;;;;;;-7.29;87.83;101727.53;10545397;28;20040;-76
2023/02/09 05:09:41;;;;;;;16.13;14.13;;;;;;;-7.21;87.45;101731.50;10545041;28;19966;-76
2023/02/09 05:14:42;;;;;;;25.23;15.52;;;;;;;-7.17;87.86;101725.81;10544955;28;20044;-76
2023/02/09 05:19:45;;;;;;;17.08;14.93;;;;;;;-7.08;86.88;101727.16;10542415;28;20051;-76
2023/02/09 05:24:47;;;;;;;20.38;16.15;;;;;;;-7.27;86.90;101728.50;10541716;28;20046;-75
2023/02/09 05:29:49;;;;;;;24.88;16.08;;;;;;;-7.19;88.22;101717.13;10544244;28;20048;-74
2023/02/09 05:34:50;;;;;;;30.83;17.23;;;;;;;-7.12;87.30;101724.44;10543251;28;20040;-76
2023/02/09 05:39:52;;;;;;;24.95;18.23;;;;;;;-7.03;87.08;101719.03;10544925;28;20472;-75
2023/02/09 05:44:54;;;;;;;30.00;18.70;;;;;;;-7.01;87.53;101719.13;10545330;28;20089;-77
2023/02/09 05:49:56;;;;;;;36.70;19.90;;;;;;;-6.90;86.72;101719.06;10550753;28;20040;-76
2023/02/09 05:54:57;;;;;;;34.03;19.92;;;;;;;-6.83;86.72;101720.31;10550294;28;20024;-76
2023/02/09 05:59:59;;;;;;;40.67;20.92;;;;;;;-6.86;86.67;101723.59;10553801;28;20047;-76
2023/02/09 06:05:01;;;;;;;36.28;20.77;;;;;;;-6.84;86.35;101712.56;10550235;28;20047;-76
2023/02/09 06:10:03;;;;;;;30.48;19.63;;;;;;;-7.33;86.84;101717.88;10547758;28;20052;-76
2023/02/09 06:15:05;;;;;;;32.72;19.33;;;;;;;-7.46;88.28;101722.97;10549175;28;20047;-76
2023/02/09 06:20:08;;;;;;;28.85;19.20;;;;;;;-7.59;88.87;101723.78;10550270;28;20077;-76
2023/02/09 06:25:09;;;;;;;26.95;20.50;;;;;;;-7.60;89.20;101731.34;10541465;28;20400;-77
2023/02/09 06:30:12;;;;;;;29.80;20.05;;;;;;;-7.48;89.29;101732.16;10554984;28;20374;-78
2023/02/09 06:35:14;;;;;;;28.27;19.33;;;;;;;-7.15;88.60;101738.66;10554150;28;20127;-78
2023/02/09 06:40:15;;;;;;;39.85;19.45;;;;;;;-7.00;88.20;101738.78;10554096;28;20044;-77
2023/02/09 06:45:17;;;;;;;39.50;21.25;;;;;;;-7.14;88.50;101743.00;10566630;22;20132;-78
2023/02/09 06:50:19;;;;;;;37.50;19.80;;;;;;;-7.16;87.98;101739.47;10534803;28;20052;-77
2023/02/09 06:55:21;;;;;;;30.02;20.20;;;;;;;-7.31;89.32;101739.31;10532728;28;20094;-78
2023/02/09 07:00:23;;;;;;;41.00;21.75;;;;;;;-7.01;89.54;101739.56;10532192;28;20115;-78
2023/02/09 07:05:25;;;;;;;42.45;23.20;;;;;;;-7.15;89.73;101731.88;10550044;28;20498;-77
2023/02/09 07:10:27;;;;;;;49.80;24.45;;;;;;;-7.21;88.26;101726.38;10548445;28;20462;-77
2023/02/09 07:15:29;;;;;;;49.13;23.77;;;;;;;-7.22;89.64;101732.25;10513469;28;20067;-77
2023/02/09 07:20:31;;;;;;;52.95;24.40;;;;;;;-7.24;89.83;101736.38;10550481;28;20050;-78
2023/02/09 07:25:33;;;;;;;41.58;22.90;;;;;;;-7.13;90.33;101740.56;10552083;28;20036;-77
2023/02/09 07:30:39;;;;;;;39.45;22.25;;;;;;;-6.93;91.30;101740.97;10533750;28;20048;-78
2023/02/09 07:35:41;;;;;;;48.47;23.65;;;;;;;-6.77;90.27;101756.53;10534032;28;20044;-77
2023/02/09 07:40:45;;;;;;;39.72;22.50;;;;;;;-6.74;90.38;101758.41;10517707;28;20048;-78
2023/02/09 07:45:47;;;;;;;40.75;22.70;;;;;;;-6.51;89.93;101747.97;10540507;28;20500;-79
2023/02/09 07:50:50;;;;;;;35.85;21.83;;;;;;;-6.35;89.74;101747.28;10515987;28;20101;-79
2023/02/09 07:55:52;;;;;;;39.33;24.00;;;;;;;-6.10;90.19;101758.28;10533409;28;20047;-78
2023/02/09 08:00:53;;;;;;;43.58;23.00;;;;;;;-6.00;89.60;101748.63;10548114;28;20131;-76
2023/02/09 08:06:18;;;;;;;39.40;24.13;;;;;;;-5.89;90.18;101747.56;10529758;28;20044;-78
2023/02/09 08:11:33;;;;;;;34.83;22.20;;;;;;;-5.80;90.20;101753.25;10547526;28;20043;-76
2023/02/09 08:16:35;;;;;;;36.63;23.67;;;;;;;-5.60;89.96;101755.38;10529163;28;20040;-76
2023/02/09 08:21:40;;;;;;;42.97;22.95;;;;;;;-5.38;89.50;101757.53;10547777;28;20386;-76
2023/02/09 08:26:42;;;;;;;38.03;23.67;;;;;;;-5.23;88.62;101765.25;10546837;28;20032;-75
2023/02/09 08:31:44;;;;;;;36.72;22.80;;;;;;;-4.99;87.09;101773.53;10545867;28;20043;-77
2023/02/09 08:36:46;;;;;;;32.00;21.65;;;;;;;-4.85;85.94;101772.63;10530212;28;20040;-76
2023/02/09 08:41:48;;;;;;;38.60;22.52;;;;;;;-4.45;85.14;101750.94;10545977;28;20043;-77
2023/02/09 08:46:50;;;;;;;36.42;22.10;;;;;;;-4.21;83.95;101752.28;10547075;28;20043;-75
2023/02/09 08:51:53;;;;;;;32.83;22.27;;;;;;;-4.19;83.30;101749.81;10544499;28;20044;-76
2023/02/09 08:56:54;;;;;;;40.38;23.48;;;;;;;-3.99;83.22;101753.47;10543256;28;20439;-75
2023/02/09 09:01:56;;;;;;;36.50;22.58;;;;;;;-3.70;82.31;101748.22;10543759;28;20509;-76
2023/02/09 09:06:58;;;;;;;38.40;22.48;;;;;;;-3.49;80.46;101732.16;10543234;28;20040;-75
2023/02/09 09:11:59;;;;;;;36.50;21.90;;;;;;;-3.13;78.56;101744.34;10525532;28;20044;-75
2023/02/09 09:17:01;;;;;;;33.17;22.88;;;;;;;-2.84;75.91;101753.50;10525753;28;20032;-75
2023/02/09 09:22:03;;;;;;;32.72;21.75;;;;;;;-2.64;74.63;101754.50;10524876;28;20058;-76
2023/02/09 09:27:06;;;;;;;24.10;20.23;;;;;;;-2.54;72.98;101764.44;10543486;28;20456;-75
2023/02/09 09:32:12;;;;;;;21.58;18.23;;;;;;;-2.16;70.50;101752.53;10542761;28;20123;-75
2023/02/09 09:37:14;;;;;;;19.23;17.23;;;;;;;-1.97;66.74;101749.09;10524444;28;20036;-76
2023/02/09 09:42:24;;;;;;;19.95;17.48;;;;;;;-1.73;66.00;101745.88;10542039;28;20059;-74
2023/02/09 09:47:35;;;;;;;24.17;16.42;;;;;;;-1.29;63.70;101742.69;10540615;28;20029;-76
2023/02/09 09:52:40;;;;;;;20.73;16.95;;;;;;;-1.56;65.65;101742.38;10523474;28;20037;-76
2023/02/09 09:57:43;;;;;;;19.73;16.63;;;;;;;-1.26;64.33;101750.59;10511846;28;20047;-77
2023/02/09 10:02:45;;;;;;;19.63;17.15;;;;;;;-1.17;64.20;101747.50;10542756;28;20472;-75
2023/02/09 10:08:09;;;;;;;19.38;17.05;;;;;;;-0.91;62.11;101733.16;10518733;28;20383;-76
2023/02/09 10:13:21;;;;;;;18.83;16.77;;;;;;;-0.76;61.31;101729.47;10483410;28;20048;-75
2023/02/09 10:18:24;;;;;;;18.52;16.45;;;;;;;-0.72;61.28;101733.06;10501565;28;20094;-76
2023/02/09 10:23:40;;;;;;;27.15;17.58;;;;;;;-0.76;61.34;101729.47;10503792;28;20048;-75
2023/02/09 10:28:51;;;;;;;29.80;17.73;;;;;;;-0.59;60.83;101724.13;10524080;28;20064;-75
2023/02/09 10:34:12;;;;;;;26.05;18.73;;;;;;;-0.69;59.98;101720.31;10548973;28;20064;-75
2023/02/09 10:39:17;;;;;;;18.77;16.75;;;;;;;-0.46;59.54;101713.47;10532117;28;20580;-74
2023/02/09 10:44:23;;;;;;;22.23;17.08;;;;;;;-0.08;59.00;101694.28;10530513;28;20062;-73
2023/02/09 10:49:27;;;;;;;21.93;18.33;;;;;;;0.25;58.06;101689.47;10549068;28;20036;-74
2023/02/09 10:54:30;;;;;;;19.48;16.90;;;;;;;0.90;56.01;101691.78;10549801;28;20048;-76
2023/02/09 10:59:35;;;;;;;17.35;15.57;;;;;;;1.17;53.59;101691.81;10552264;28;20044;-75
2023/02/09 11:04:38;;;;;;;17.52;15.10;;;;;;;1.59;53.41;101678.44;10551766;28;20044;-76
2023/02/09 11:09:46;;;;;;;17.98;16.27;;;;;;;2.18;52.25;101674.19;10533176;28;20075;-76
2023/02/09 11:14:48;;;;;;;23.33;14.48;;;;;;;2.71;50.27;101664.41;10551312;28;20051;-74
2023/02/09 11:20:12;;;;;;;17.17;15.55;;;;;;;3.61;48.54;101656.19;10533624;28;20051;-74
2023/02/09 11:25:49;;;;;;;16.02;14.52;;;;;;;4.43;46.88;101656.19;10551173;28;20089;-74
2023/02/09 11:31:38;;;;;;;15.88;13.38;;;;;;;4.44;43.84;101647.50;10550193;28;20067;-74
2023/02/09 11:37:01;;;;;;;13.50;12.30;;;;;;;3.89;44.42;101635.97;10547452;28;20058;-75
2023/02/09 11:47:57;;;;;;;12.40;11.30;;;;;;;6.21;41.20;101608.53;10545696;28;20058;-74
2023/02/09 11:53:03;;;;;;;11.45;9.55;;;;;;;5.94;39.15;101602.97;10546602;28;20119;-74
2023/02/09 11:58:43;;;;;;;9.35;8.45;;;;;;;6.29;39.06;101593.81;10545535;28;20036;-74
2023/02/09 12:04:24;;;;;;;9.80;8.90;;;;;;;5.43;40.05;101573.56;10545714;28;20106;-74
2023/02/09 12:09:34;;;;;;;10.63;9.38;;;;;;;5.75;38.21;101576.59;10543276;28;20035;-75
2023/02/09 12:14:58;;;;;;;13.63;12.32;;;;;;;5.45;39.80;101566.66;10540682;28;20046;-75
2023/02/09 12:20:01;;;;;;;13.20;10.82;;;;;;;5.16;40.70;101555.81;10505537;28;20040;-73
2023/02/09 12:25:16;;;;;;;10.52;9.52;;;;;;;4.36;41.88;101564.06;10506504;28;20371;-74
2023/02/09 12:30:39;;;;;;;11.82;10.73;;;;;;;3.48;42.57;101553.63;10502077;28;20115;-74
2023/02/09 12:35:42;;;;;;;11.77;10.65;;;;;;;3.75;42.68;101532.53;10520593;28;20046;-75
2023/02/09 12:41:01;;;;;;;19.38;11.15;;;;;;;3.80;43.22;101524.81;10543367;28;20035;-73
2023/02/09 12:46:18;;;;;;;12.93;11.57;;;;;;;3.21;44.43;101512.34;10529693;22;20056;-77
2023/02/09 12:52:00;;;;;;;13.20;11.07;;;;;;;3.41;43.49;101486.78;10542066;28;20100;-78
2023/02/09 12:57:13;;;;;;;15.07;10.85;;;;;;;3.23;44.17;101500.28;10510008;28;20070;-77
2023/02/09 13:02:22;;;;;;;10.77;9.52;;;;;;;3.27;44.84;101496.88;10543824;28;20042;-77
2023/02/09 13:07:55;;;;;;;11.52;8.77;;;;;;;3.10;42.77;101498.25;10589336;28;20123;-77
2023/02/09 13:13:11;;;;;;;14.75;9.40;;;;;;;3.21;42.36;101496.75;10584743;28;20043;-77
2023/02/09 13:18:22;;;;;;;12.27;9.35;;;;;;;3.17;45.37;101487.13;10587020;28;20040;-76
2023/02/09 13:23:27;;;;;;;14.90;11.60;;;;;;;2.73;46.92;101483.53;10583884;28;20043;-75
2023/02/09 13:28:29;;;;;;;14.57;12.48;;;;;;;3.03;45.76;101473.84;10583276;28;20048;-76
2023/02/09 13:33:45;;;;;;;11.60;9.73;;;;;;;3.14;44.92;101445.47;10583935;28;20036;-75
2023/02/09 13:38:47;;;;;;;13.40;11.15;;;;;;;2.87;45.78;101453.56;10560051;28;20064;-76
2023/02/09 13:43:49;;;;;;;13.80;12.50;;;;;;;3.18;45.65;101462.03;10544296;28;20058;-76
2023/02/09 13:48:50;;;;;;;14.00;12.18;;;;;;;2.95;45.56;101462.41;10541375;28;20508;-77
2023/02/09 13:53:57;;;;;;;16.20;11.45;;;;;;;2.95;45.10;101472.78;10523088;28;20048;-75
2023/02/09 13:59:00;;;;;;;14.60;11.55;;;;;;;3.12;44.37;101473.16;10542891;28;20132;-77
2023/02/09 14:04:18;;;;;;;14.73;13.23;;;;;;;2.59;46.99;101479.75;10551027;28;20044;-77
2023/02/09 14:09:43;;;;;;;14.43;12.70;;;;;;;2.90;46.13;101479.59;10548217;28;20036;-77
2023/02/09 14:20:23;;;;;;;13.25;11.95;;;;;;;2.75;45.83;101487.06;10549063;28;20036;-78
2023/02/09 14:25:29;;;;;;;14.35;12.77;;;;;;;2.43;46.96;101489.75;10551437;28;20121;-76
2023/02/09 14:30:35;;;;;;;14.97;13.50;;;;;;;2.33;47.07;101495.56;10548235;28;20063;-75
2023/02/09 14:35:40;;;;;;;13.38;12.15;;;;;;;2.53;46.50;101501.25;10528907;28;20044;-75
2023/02/09 14:40:43;;;;;;;20.10;13.70;;;;;;;2.21;47.90;101492.63;10529018;28;20146;-75
2023/02/09 14:45:56;;;;;;;14.30;12.80;;;;;;;2.55;46.43;101493.50;10532389;28;20097;-74
2023/02/09 14:51:15;;;;;;;14.68;13.30;;;;;;;2.34;47.57;101493.84;10547384;28;20105;-75
2023/02/09 14:56:28;;;;;;;18.83;13.70;;;;;;;2.25;48.09;101491.88;10547853;28;20040;-76
2023/02/09 15:01:30;;;;;;;18.02;13.13;;;;;;;2.17;48.07;101478.75;10529522;28;20055;-75
2023/02/09 15:06:34;;;;;;;16.02;12.82;;;;;;;1.97;48.69;101485.13;10528795;28;20539;-75
2023/02/09 15:16:56;;;;;;;16.77;14.00;;;;;;;2.10;48.36;101479.41;10546543;28;20036;-76
2023/02/09 15:21:58;;;;;;;25.38;14.75;;;;;;;1.91;48.91;101477.19;10545736;28;20048;-76
2023/02/09 15:27:18;;;;;;;21.70;15.95;;;;;;;1.92;49.25;101476.34;10545071;28;20405;-75
2023/02/09 15:32:22;;;;;;;17.83;15.98;;;;;;;1.47;50.52;101477.72;10548029;28;20047;-75
2023/02/09 15:37:27;;;;;;;15.65;14.10;;;;;;;1.05;52.55;101492.88;10526337;28;20480;-75
2023/02/09 15:47:51;;;;;;;15.32;11.02;;;;;;;1.10;50.03;101493.00;10527578;28;20048;-76
2023/02/09 15:52:56;;;;;;;13.50;10.82;;;;;;;1.07;49.64;101496.41;10547444;28;20105;-76
2023/02/09 15:57:58;;;;;;;13.80;11.63;;;;;;;0.85;49.63;101504.34;10511868;28;20493;-77
2023/02/09 16:03:00;;;;;;;12.15;10.30;;;;;;;0.55;50.71;101507.72;10545227;28;20478;-76
2023/02/09 16:08:02;;;;;;;17.20;11.88;;;;;;;0.36;51.51;101511.41;10526152;28;20090;-74
2023/02/09 16:13:05;;;;;;;13.77;12.25;;;;;;;0.27;51.88;101516.28;10529244;28;20095;-77
2023/02/09 16:18:07;;;;;;;13.27;11.88;;;;;;;0.20;52.28;101506.53;10544711;28;20093;-77
2023/02/09 16:23:09;;;;;;;16.60;13.38;;;;;;;-0.01;53.15;101512.72;10523460;28;20048;-75
2023/02/09 16:28:21;;;;;;;18.75;14.32;;;;;;;-0.16;53.93;101522.53;10540924;28;20044;-75
2023/02/09 16:33:24;;;;;;;15.35;13.20;;;;;;;-0.24;54.88;101526.56;10543466;28;20059;-76
2023/02/09 16:38:28;;;;;;;35.75;19.92;;;;;;;-0.43;55.11;101524.13;10528658;28;20036;-76
2023/02/09 16:43:30;;;;;;;31.85;18.85;;;;;;;-0.59;56.44;101517.50;10541321;28;20043;-75
2023/02/09 16:48:33;;;;;;;26.85;19.65;;;;;;;-0.74;57.13;101530.75;10541143;28;20040;-75
2023/02/09 16:53:42;;;;;;;29.23;18.25;;;;;;;-0.80;58.18;101538.22;10548886;28;20123;-76
2023/02/09 16:58:48;;;;;;;29.95;18.73;;;;;;;-0.97;58.89;101554.75;10544615;28;20424;-76
2023/02/09 17:03:55;;;;;;;24.92;17.33;;;;;;;-0.84;58.88;101551.84;10523316;28;20508;-76
2023/02/09 17:08:57;;;;;;;24.03;16.67;;;;;;;-0.85;58.87;101550.09;10540731;28;20081;-76
2023/02/09 17:13:59;;;;;;;20.80;16.25;;;;;;;-0.89;59.04;101556.81;10539264;28;20167;-76
2023/02/09 17:19:04;;;;;;;18.55;16.55;;;;;;;-0.88;59.58;101565.47;10541935;28;20036;-75
2023/02/09 17:24:16;;;;;;;24.75;17.20;;;;;;;-0.80;59.18;101572.72;10542016;28;20066;-76
2023/02/09 17:29:20;;;;;;;18.27;16.58;;;;;;;-0.82;59.53;101568.28;10521818;28;20435;-76
2023/02/09 17:34:27;;;;;;;17.27;15.43;;;;;;;-0.57;58.81;101568.41;10524121;28;20044;-77
2023/02/09 17:39:29;;;;;;;20.80;16.27;;;;;;;-0.50;59.29;101577.25;10524942;28;20080;-75
2023/02/09 17:44:31;;;;;;;25.27;17.45;;;;;;;-0.80;60.34;101592.44;10537331;28;20043;-75
2023/02/09 17:49:46;;;;;;;18.35;16.60;;;;;;;-0.73;60.75;101599.63;10551325;28;20036;-75
2023/02/09 17:54:49;;;;;;;24.75;18.10;;;;;;;-0.65;60.59;101599.94;10548542;28;20081;-75
2023/02/09 17:59:51;;;;;;;24.98;18.40;;;;;;;-0.83;61.51;101594.94;10548966;28;20036;-75
2023/02/09 18:04:53;;;;;;;27.98;18.67;;;;;;;-0.84;62.20;101598.31;10557503;28;20046;-76
2023/02/09 18:09:55;;;;;;;35.90;23.80;;;;;;;-1.07;62.62;101590.53;10533153;28;20043;-75
2023/02/09 18:14:57;;;;;;;27.17;21.05;;;;;;;-1.12;63.06;101583.44;10550220;28;20116;-75
2023/02/09 18:19:59;;;;;;;31.80;22.88;;;;;;;-1.34;64.03;101589.41;10548148;28;20036;-75
2023/02/09 18:25:01;;;;;;;36.08;21.98;;;;;;;-1.40;64.01;101586.59;10550481;28;20036;-76
2023/02/09 18:30:03;;;;;;;32.78;20.80;;;;;;;-1.38;64.57;101582.38;10547759;28;20052;-76
2023/02/09 18:35:05;;;;;;;85.25;38.95;;;;;;;-1.48;64.86;101580.25;10529146;28;20139;-75
2023/02/09 18:40:07;;;;;;;55.63;26.67;;;;;;;-1.41;64.90;101583.16;10547304;28;20055;-75
2023/02/09 18:45:10;;;;;;;58.60;29.05;;;;;;;-1.39;65.07;101585.78;10547477;28;20044;-76
2023/02/09 18:50:18;;;;;;;71.22;33.55;;;;;;;-1.39;64.79;101584.06;10569202;28;20040;-78
2023/02/09 18:55:23;;;;;;;73.00;30.58;;;;;;;-1.52;65.57;101585.25;10549440;28;20075;-79
2023/02/09 19:00:25;;;;;;;62.28;29.35;;;;;;;-1.45;64.96;101585.53;10566840;28;20059;-78
2023/02/09 19:05:31;;;;;;;67.00;30.90;;;;;;;-1.45;64.92;101577.78;10567430;28;20082;-78
2023/02/09 19:10:34;;;;;;;51.53;25.88;;;;;;;-1.49;64.62;101581.94;10531103;28;20432;-78
2023/02/09 19:15:37;;;;;;;43.80;24.67;;;;;;;-1.67;65.74;101579.47;10560001;28;20044;-78
2023/02/09 19:20:40;;;;;;;44.25;21.83;;;;;;;-1.55;65.82;101573.94;10567137;28;20048;-79
2023/02/09 19:25:42;;;;;;;48.78;27.20;;;;;;;-1.64;65.76;101573.53;10571589;28;20032;-80
2023/02/09 19:30:43;;;;;;;27.77;20.35;;;;;;;-1.63;65.68;101576.22;10571431;28;20446;-80
2023/02/09 19:35:45;;;;;;;31.08;22.27;;;;;;;-1.55;65.66;101569.69;10547727;28;20090;-78
2023/02/09 19:40:47;;;;;;;30.67;21.48;;;;;;;-1.27;64.19;101558.78;10547190;28;20093;-78
2023/02/09 19:45:57;;;;;;;38.83;23.98;;;;;;;-1.34;64.64;101576.53;10547300;28;20143;-78
2023/02/09 19:50:59;;;;;;;23.20;18.95;;;;;;;-1.35;64.35;101567.03;10565540;28;20036;-79
2023/02/09 19:56:01;;;;;;;25.30;19.30;;;;;;;-1.36;64.49;101565.28;10565585;28;20119;-79
2023/02/09 20:01:07;;;;;;;25.92;19.20;;;;;;;-1.46;64.09;101574.34;10564918;28;20478;-79
2023/02/09 20:06:12;;;;;;;21.83;19.07;;;;;;;-1.66;64.91;101591.53;10562879;28;20043;-79
2023/02/09 20:11:19;;;;;;;29.63;18.80;;;;;;;-1.68;65.84;101595.75;10543623;28;20052;-78
2023/02/09 20:16:23;;;;;;;33.63;21.17;;;;;;;-1.77;66.08;101592.78;10567048;28;20036;-79
2023/02/09 20:21:25;;;;;;;24.88;19.98;;;;;;;-1.79;66.31;101594.41;10563046;28;20052;-78
2023/02/09 20:26:28;;;;;;;26.67;20.58;;;;;;;-1.63;66.53;101590.81;10563423;28;20533;-80
2023/02/09 20:31:33;;;;;;;31.13;22.35;;;;;;;-1.72;67.63;101586.13;10563688;28;20044;-79
2023/02/09 20:36:38;;;;;;;45.60;25.35;;;;;;;-1.69;67.36;101586.25;10548415;28;20119;-80
2023/02/09 20:46:54;;;;;;;40.67;22.48;;;;;;;-1.83;68.59;101593.38;10566661;28;20118;-79
2023/02/09 20:47:03;;;;;;;36.78;21.05;;;;;;;-1.72;68.49;101585.25;10547022;28;20070;-79
2023/02/09 20:52:05;;;;;;;34.40;23.38;;;;;;;-1.93;69.09;101578.34;10547432;28;20111;-79
2023/02/09 20:57:07;;;;;;;30.73;21.08;;;;;;;-1.72;68.96;101573.25;10529572;28;20064;-78
2023/02/09 21:02:11;;;;;;;27.52;20.27;;;;;;;-1.87;68.70;101570.88;10563202;28;20047;-78
2023/02/09 21:07:13;;;;;;;31.55;20.55;;;;;;;-2.06;69.33;101569.19;10545634;28;20040;-79
2023/02/09 21:12:15;;;;;;;28.90;19.38;;;;;;;-2.08;69.80;101560.53;10548811;28;20048;-79
2023/02/09 21:17:18;;;;;;;23.25;18.83;;;;;;;-2.27;69.91;101573.41;10564631;28;20032;-78
2023/02/09 21:22:20;;;;;;;22.65;19.05;;;;;;;-2.17;70.01;101577.25;10564992;28;20052;-79
2023/02/09 21:27:24;;;;;;;26.25;19.15;;;;;;;-2.04;68.76;101583.03;10564229;28;20144;-79
2023/02/09 21:32:26;;;;;;;40.15;22.67;;;;;;;-2.31;70.18;101595.56;10562846;28;20044;-79
2023/02/09 21:37:31;;;;;;;28.88;20.90;;;;;;;-2.03;69.09;101604.53;10546815;28;20044;-79
2023/02/09 21:42:34;;;;;;;25.95;20.33;;;;;;;-2.19;69.73;101612.38;10563672;28;20048;-79
2023/02/09 21:47:38;;;;;;;31.17;20.77;;;;;;;-2.06;71.18;101615.56;10559790;28;20036;-78
2023/02/09 21:52:40;;;;;;;26.80;19.88;;;;;;;-2.23;71.81;101620.78;10556953;28;20142;-80
2023/02/09 21:57:42;;;;;;;32.55;20.15;;;;;;;-2.80;72.75;101631.91;10560340;28;20093;-79
2023/02/09 22:02:44;;;;;;;27.23;19.98;;;;;;;-2.86;73.38;101635.88;10544022;28;20086;-78
2023/02/09 22:07:47;;;;;;;26.23;20.30;;;;;;;-2.73;73.90;101638.22;10545124;28;20044;-78
2023/02/09 22:12:49;;;;;;;34.08;21.17;;;;;;;-2.44;73.60;101646.44;10541108;28;20048;-78
2023/02/09 22:17:50;;;;;;;33.88;21.70;;;;;;;-2.49;72.98;101651.38;10555343;28;20062;-80
2023/02/09 22:22:55;;;;;;;27.45;21.15;;;;;;;-2.64;72.62;101653.22;10555083;28;20427;-78
2023/02/09 22:27:57;;;;;;;26.55;20.33;;;;;;;-2.69;74.11;101650.44;10557804;28;20035;-78
2023/02/09 22:33:00;;;;;;;33.17;21.15;;;;;;;-2.93;74.62;101657.84;10563143;28;20040;-78
2023/02/09 22:38:02;;;;;;;29.13;20.77;;;;;;;-2.95;75.23;101646.63;10566218;28;20402;-79
2023/02/09 22:43:03;;;;;;;28.45;19.10;;;;;;;-3.17;75.53;101648.94;10565512;28;20058;-78
2023/02/09 22:48:05;;;;;;;23.45;19.42;;;;;;;-2.86;74.96;101641.91;10565006;28;20036;-78
2023/02/09 22:53:07;;;;;;;25.70;18.90;;;;;;;-3.04;75.13;101646.16;10545047;28;20065;-78
2023/02/09 22:58:09;;;;;;;20.20;17.27;;;;;;;-3.22;74.96;101643.56;10547316;28;20040;-78
2023/02/09 23:03:10;;;;;;;22.33;17.05;;;;;;;-3.31;74.70;101645.69;10566020;28;20095;-79
2023/02/09 23:08:12;;;;;;;22.77;17.10;;;;;;;-3.34;75.27;101640.38;10567642;28;20123;-78
2023/02/09 23:13:14;;;;;;;22.48;15.82;;;;;;;-3.45;75.08;101642.44;10565113;28;20052;-78
2023/02/09 23:18:16;;;;;;;19.40;16.48;;;;;;;-3.43;75.24;101645.06;10546721;28;20062;-79
2023/02/09 23:23:17;;;;;;;20.58;16.17;;;;;;;-3.46;75.28;101650.91;10547080;28;20075;-79
2023/02/09 23:28:19;;;;;;;19.80;15.88;;;;;;;-3.44;75.38;101625.31;10565500;28;20044;-78
2023/02/09 23:33:21;;;;;;;22.27;16.50;;;;;;;-3.47;75.70;101626.03;10564586;28;20485;-79